sensor_id;sensor_type;location;lat;lon;timestamp;P1;durP1;ratioP1;P2;durP2;ratioP2
67041;SDS011;53949;47.790;18.750;2023-07-02T00:01:22;11.80;;;7.85;;
67041;SDS011;53949;47.790;18.750;2023-07-02T00:04:25;14.07;;;8.18;;
67041;SDS011;53949;47.790;18.750;2023-07-02T00:07:28;11.80;;;8.20;;
67041;SDS011;53949;47.790;18.750;2023-07-02T00:10:31;15.00;;;8.70;;
67041;SDS011;53949;47.790;18.750;2023-07-02T00:13:35;12.93;;;9.25;;
67041;SDS011;53949;47.790;18.750;2023-07-02T00:16:38;11.85;;;8.15;;
67041;SDS011;53949;47.790;18.750;2023-07-02T00:19:42;12.25;;;8.20;;
67041;SDS011;53949;47.790;18.750;2023-07-02T00:22:46;13.07;;;7.97;;
67041;SDS011;53949;47.790;18.750;2023-07-02T00:25:49;10.65;;;7.72;;
67041;SDS011;53949;47.790;18.750;2023-07-02T00:28:55;14.98;;;8.52;;
67041;SDS011;53949;47.790;18.750;2023-07-02T00:31:59;10.55;;;7.90;;
67041;SDS011;53949;47.790;18.750;2023-07-02T00:35:02;11.80;;;8.13;;
67041;SDS011;53949;47.790;18.750;2023-07-02T00:38:06;9.60;;;7.80;;
67041;SDS011;53949;47.790;18.750;2023-07-02T00:41:11;13.60;;;8.48;;
67041;SDS011;53949;47.790;18.750;2023-07-02T00:44:14;11.37;;;7.73;;
67041;SDS011;53949;47.790;18.750;2023-07-02T00:47:18;12.93;;;8.10;;
67041;SDS011;53949;47.790;18.750;2023-07-02T00:50:22;13.43;;;7.65;;
67041;SDS011;53949;47.790;18.750;2023-07-02T00:53:26;13.10;;;8.05;;
67041;SDS011;53949;47.790;18.750;2023-07-02T00:56:29;13.18;;;8.02;;
67041;SDS011;53949;47.790;18.750;2023-07-02T00:59:32;13.13;;;8.05;;
67041;SDS011;53949;47.790;18.750;2023-07-02T01:02:41;10.90;;;7.15;;
67041;SDS011;53949;47.790;18.750;2023-07-02T01:05:46;12.82;;;7.53;;
67041;SDS011;53949;47.790;18.750;2023-07-02T01:08:51;14.02;;;7.37;;
67041;SDS011;53949;47.790;18.750;2023-07-02T01:11:57;10.93;;;7.53;;
67041;SDS011;53949;47.790;18.750;2023-07-02T01:15:02;13.60;;;6.68;;
67041;SDS011;53949;47.790;18.750;2023-07-02T01:18:06;10.82;;;7.70;;
67041;SDS011;53949;47.790;18.750;2023-07-02T01:21:09;9.93;;;7.72;;
67041;SDS011;53949;47.790;18.750;2023-07-02T01:24:13;16.67;;;8.15;;
67041;SDS011;53949;47.790;18.750;2023-07-02T01:27:16;14.07;;;7.55;;
67041;SDS011;53949;47.790;18.750;2023-07-02T01:33:24;11.45;;;8.18;;
67041;SDS011;53949;47.790;18.750;2023-07-02T01:36:27;10.85;;;7.65;;
67041;SDS011;53949;47.790;18.750;2023-07-02T01:39:30;11.93;;;7.00;;
67041;SDS011;53949;47.790;18.750;2023-07-02T01:42:34;10.93;;;6.87;;
67041;SDS011;53949;47.790;18.750;2023-07-02T01:45:38;10.45;;;6.82;;
67041;SDS011;53949;47.790;18.750;2023-07-02T01:48:42;10.63;;;6.72;;
67041;SDS011;53949;47.790;18.750;2023-07-02T01:51:55;9.10;;;6.40;;
67041;SDS011;53949;47.790;18.750;2023-07-02T01:55:00;12.50;;;6.95;;
67041;SDS011;53949;47.790;18.750;2023-07-02T01:58:05;16.70;;;7.87;;
67041;SDS011;53949;47.790;18.750;2023-07-02T02:01:09;11.38;;;6.93;;
67041;SDS011;53949;47.790;18.750;2023-07-02T02:04:13;12.20;;;7.12;;
67041;SDS011;53949;47.790;18.750;2023-07-02T02:07:17;11.57;;;7.35;;
67041;SDS011;53949;47.790;18.750;2023-07-02T02:10:21;15.93;;;7.65;;
67041;SDS011;53949;47.790;18.750;2023-07-02T02:13:24;11.60;;;6.62;;
67041;SDS011;53949;47.790;18.750;2023-07-02T02:16:28;12.02;;;6.72;;
67041;SDS011;53949;47.790;18.750;2023-07-02T02:19:31;10.15;;;7.05;;
67041;SDS011;53949;47.790;18.750;2023-07-02T02:22:35;12.57;;;7.93;;
67041;SDS011;53949;47.790;18.750;2023-07-02T02:25:37;12.55;;;7.32;;
67041;SDS011;53949;47.790;18.750;2023-07-02T02:28:41;13.68;;;7.32;;
67041;SDS011;53949;47.790;18.750;2023-07-02T02:31:45;10.48;;;6.40;;
67041;SDS011;53949;47.790;18.750;2023-07-02T02:34:48;10.75;;;7.35;;
67041;SDS011;53949;47.790;18.750;2023-07-02T02:37:52;11.00;;;6.40;;
67041;SDS011;53949;47.790;18.750;2023-07-02T02:40:56;10.25;;;6.50;;
67041;SDS011;53949;47.790;18.750;2023-07-02T02:43:59;13.05;;;6.97;;
67041;SDS011;53949;47.790;18.750;2023-07-02T02:47:02;12.85;;;6.82;;
67041;SDS011;53949;47.790;18.750;2023-07-02T02:50:08;13.75;;;7.20;;
67041;SDS011;53949;47.790;18.750;2023-07-02T02:53:14;10.52;;;6.43;;
67041;SDS011;53949;47.790;18.750;2023-07-02T02:59:21;13.27;;;6.80;;
67041;SDS011;53949;47.790;18.750;2023-07-02T03:02:24;14.07;;;6.65;;
67041;SDS011;53949;47.790;18.750;2023-07-02T03:05:27;9.55;;;6.97;;
67041;SDS011;53949;47.790;18.750;2023-07-02T03:08:30;11.75;;;6.35;;
67041;SDS011;53949;47.790;18.750;2023-07-02T03:11:34;9.15;;;5.87;;
67041;SDS011;53949;47.790;18.750;2023-07-02T03:14:37;5.90;;;5.25;;
67041;SDS011;53949;47.790;18.750;2023-07-02T03:17:40;9.85;;;6.50;;
67041;SDS011;53949;47.790;18.750;2023-07-02T03:20:43;9.10;;;6.53;;
67041;SDS011;53949;47.790;18.750;2023-07-02T03:23:47;7.68;;;5.85;;
67041;SDS011;53949;47.790;18.750;2023-07-02T03:26:50;7.65;;;5.65;;
67041;SDS011;53949;47.790;18.750;2023-07-02T03:29:53;9.60;;;6.57;;
67041;SDS011;53949;47.790;18.750;2023-07-02T03:32:57;10.38;;;6.22;;
67041;SDS011;53949;47.790;18.750;2023-07-02T03:36:02;8.77;;;5.93;;
67041;SDS011;53949;47.790;18.750;2023-07-02T03:39:05;10.00;;;6.18;;
67041;SDS011;53949;47.790;18.750;2023-07-02T03:42:13;11.05;;;6.57;;
67041;SDS011;53949;47.790;18.750;2023-07-02T03:45:16;8.75;;;6.00;;
67041;SDS011;53949;47.790;18.750;2023-07-02T03:48:20;9.63;;;5.75;;
67041;SDS011;53949;47.790;18.750;2023-07-02T03:51:23;10.05;;;6.25;;
67041;SDS011;53949;47.790;18.750;2023-07-02T03:54:26;13.07;;;6.87;;
67041;SDS011;53949;47.790;18.750;2023-07-02T03:57:29;10.82;;;6.45;;
67041;SDS011;53949;47.790;18.750;2023-07-02T04:00:33;9.15;;;6.07;;
67041;SDS011;53949;47.790;18.750;2023-07-02T04:03:36;13.88;;;6.30;;
67041;SDS011;53949;47.790;18.750;2023-07-02T04:06:41;10.20;;;6.50;;
67041;SDS011;53949;47.790;18.750;2023-07-02T04:09:44;7.53;;;5.68;;
67041;SDS011;53949;47.790;18.750;2023-07-02T04:12:47;10.80;;;6.05;;
67041;SDS011;53949;47.790;18.750;2023-07-02T04:15:50;8.50;;;6.03;;
67041;SDS011;53949;47.790;18.750;2023-07-02T04:18:53;8.07;;;5.82;;
67041;SDS011;53949;47.790;18.750;2023-07-02T04:21:57;7.22;;;5.47;;
67041;SDS011;53949;47.790;18.750;2023-07-02T04:25:01;8.73;;;5.37;;
67041;SDS011;53949;47.790;18.750;2023-07-02T04:28:20;9.60;;;5.87;;
67041;SDS011;53949;47.790;18.750;2023-07-02T04:31:23;6.80;;;5.22;;
67041;SDS011;53949;47.790;18.750;2023-07-02T04:34:27;7.60;;;5.30;;
67041;SDS011;53949;47.790;18.750;2023-07-02T04:37:30;7.93;;;5.18;;
67041;SDS011;53949;47.790;18.750;2023-07-02T04:40:33;7.95;;;5.30;;
67041;SDS011;53949;47.790;18.750;2023-07-02T04:43:37;11.38;;;5.70;;
67041;SDS011;53949;47.790;18.750;2023-07-02T04:46:40;7.87;;;5.55;;
67041;SDS011;53949;47.790;18.750;2023-07-02T04:49:43;8.82;;;5.45;;
67041;SDS011;53949;47.790;18.750;2023-07-02T04:52:47;10.68;;;6.03;;
67041;SDS011;53949;47.790;18.750;2023-07-02T04:55:50;8.65;;;5.20;;
67041;SDS011;53949;47.790;18.750;2023-07-02T04:58:53;6.37;;;5.10;;
67041;SDS011;53949;47.790;18.750;2023-07-02T05:01:56;11.40;;;4.95;;
67041;SDS011;53949;47.790;18.750;2023-07-02T05:05:00;7.72;;;5.07;;
67041;SDS011;53949;47.790;18.750;2023-07-02T05:08:03;7.20;;;5.07;;
67041;SDS011;53949;47.790;18.750;2023-07-02T05:11:09;9.07;;;5.22;;
67041;SDS011;53949;47.790;18.750;2023-07-02T05:14:12;13.80;;;5.40;;
67041;SDS011;53949;47.790;18.750;2023-07-02T05:17:16;6.53;;;5.10;;
67041;SDS011;53949;47.790;18.750;2023-07-02T05:20:19;7.90;;;5.37;;
67041;SDS011;53949;47.790;18.750;2023-07-02T05:23:22;8.63;;;5.25;;
67041;SDS011;53949;47.790;18.750;2023-07-02T05:26:25;7.90;;;5.15;;
67041;SDS011;53949;47.790;18.750;2023-07-02T05:29:29;6.85;;;5.10;;
67041;SDS011;53949;47.790;18.750;2023-07-02T05:32:34;8.40;;;5.45;;
67041;SDS011;53949;47.790;18.750;2023-07-02T05:35:39;6.68;;;5.18;;
67041;SDS011;53949;47.790;18.750;2023-07-02T05:38:42;14.70;;;5.45;;
67041;SDS011;53949;47.790;18.750;2023-07-02T05:41:46;8.88;;;5.93;;
67041;SDS011;53949;47.790;18.750;2023-07-02T05:44:49;9.23;;;5.53;;
67041;SDS011;53949;47.790;18.750;2023-07-02T05:47:53;9.30;;;5.43;;
67041;SDS011;53949;47.790;18.750;2023-07-02T05:50:56;6.78;;;4.70;;
67041;SDS011;53949;47.790;18.750;2023-07-02T05:53:59;7.40;;;4.78;;
67041;SDS011;53949;47.790;18.750;2023-07-02T05:57:02;8.27;;;5.68;;
67041;SDS011;53949;47.790;18.750;2023-07-02T06:00:06;7.43;;;5.37;;
67041;SDS011;53949;47.790;18.750;2023-07-02T06:03:13;6.60;;;5.10;;
67041;SDS011;53949;47.790;18.750;2023-07-02T06:06:22;7.47;;;5.43;;
67041;SDS011;53949;47.790;18.750;2023-07-02T06:09:26;8.60;;;5.20;;
67041;SDS011;53949;47.790;18.750;2023-07-02T06:12:29;6.05;;;4.80;;
67041;SDS011;53949;47.790;18.750;2023-07-02T06:15:32;7.07;;;5.25;;
67041;SDS011;53949;47.790;18.750;2023-07-02T06:18:36;9.20;;;5.18;;
67041;SDS011;53949;47.790;18.750;2023-07-02T06:21:39;6.45;;;5.32;;
67041;SDS011;53949;47.790;18.750;2023-07-02T06:24:42;8.02;;;5.62;;
67041;SDS011;53949;47.790;18.750;2023-07-02T06:27:45;7.03;;;5.00;;
67041;SDS011;53949;47.790;18.750;2023-07-02T06:30:50;10.35;;;5.18;;
67041;SDS011;53949;47.790;18.750;2023-07-02T06:33:53;8.18;;;5.15;;
67041;SDS011;53949;47.790;18.750;2023-07-02T06:36:58;6.05;;;5.03;;
67041;SDS011;53949;47.790;18.750;2023-07-02T06:40:02;7.00;;;5.07;;
67041;SDS011;53949;47.790;18.750;2023-07-02T06:43:07;6.82;;;4.72;;
67041;SDS011;53949;47.790;18.750;2023-07-02T06:46:11;6.60;;;4.50;;
67041;SDS011;53949;47.790;18.750;2023-07-02T06:49:15;8.55;;;4.82;;
67041;SDS011;53949;47.790;18.750;2023-07-02T06:52:18;6.03;;;4.95;;
67041;SDS011;53949;47.790;18.750;2023-07-02T06:55:21;6.10;;;4.43;;
67041;SDS011;53949;47.790;18.750;2023-07-02T06:58:26;6.72;;;4.87;;
67041;SDS011;53949;47.790;18.750;2023-07-02T07:01:29;7.90;;;3.83;;
67041;SDS011;53949;47.790;18.750;2023-07-02T07:04:32;5.03;;;3.85;;
67041;SDS011;53949;47.790;18.750;2023-07-02T07:07:37;4.57;;;3.97;;
67041;SDS011;53949;47.790;18.750;2023-07-02T07:10:41;4.57;;;3.13;;
67041;SDS011;53949;47.790;18.750;2023-07-02T07:13:44;3.15;;;2.53;;
67041;SDS011;53949;47.790;18.750;2023-07-02T07:16:47;3.90;;;2.53;;
67041;SDS011;53949;47.790;18.750;2023-07-02T07:19:50;2.67;;;2.47;;
67041;SDS011;53949;47.790;18.750;2023-07-02T07:22:54;3.03;;;2.45;;
67041;SDS011;53949;47.790;18.750;2023-07-02T07:25:58;3.20;;;2.50;;
67041;SDS011;53949;47.790;18.750;2023-07-02T07:29:01;3.90;;;2.78;;
67041;SDS011;53949;47.790;18.750;2023-07-02T07:32:04;2.45;;;2.17;;
67041;SDS011;53949;47.790;18.750;2023-07-02T07:35:08;3.70;;;2.47;;
67041;SDS011;53949;47.790;18.750;2023-07-02T07:38:13;2.85;;;2.12;;
67041;SDS011;53949;47.790;18.750;2023-07-02T07:41:17;6.10;;;2.87;;
67041;SDS011;53949;47.790;18.750;2023-07-02T07:44:20;3.08;;;2.78;;
67041;SDS011;53949;47.790;18.750;2023-07-02T07:47:23;3.10;;;2.80;;
67041;SDS011;53949;47.790;18.750;2023-07-02T07:50:26;3.45;;;2.90;;
67041;SDS011;53949;47.790;18.750;2023-07-02T07:53:29;4.43;;;2.90;;
67041;SDS011;53949;47.790;18.750;2023-07-02T07:56:33;6.90;;;2.55;;
67041;SDS011;53949;47.790;18.750;2023-07-02T07:59:36;4.25;;;3.28;;
67041;SDS011;53949;47.790;18.750;2023-07-02T08:02:40;4.25;;;3.05;;
67041;SDS011;53949;47.790;18.750;2023-07-02T08:05:43;4.32;;;3.15;;
67041;SDS011;53949;47.790;18.750;2023-07-02T08:08:46;3.92;;;2.90;;
67041;SDS011;53949;47.790;18.750;2023-07-02T08:11:51;3.62;;;3.00;;
67041;SDS011;53949;47.790;18.750;2023-07-02T08:14:55;5.43;;;3.55;;
67041;SDS011;53949;47.790;18.750;2023-07-02T08:18:00;3.80;;;3.40;;
67041;SDS011;53949;47.790;18.750;2023-07-02T08:21:03;6.28;;;3.17;;
67041;SDS011;53949;47.790;18.750;2023-07-02T08:24:09;4.25;;;2.97;;
67041;SDS011;53949;47.790;18.750;2023-07-02T08:27:12;3.72;;;2.65;;
67041;SDS011;53949;47.790;18.750;2023-07-02T08:30:18;3.47;;;2.85;;
67041;SDS011;53949;47.790;18.750;2023-07-02T08:33:21;3.75;;;3.20;;
67041;SDS011;53949;47.790;18.750;2023-07-02T08:36:25;4.05;;;3.20;;
67041;SDS011;53949;47.790;18.750;2023-07-02T08:39:28;3.92;;;3.08;;
67041;SDS011;53949;47.790;18.750;2023-07-02T08:42:34;4.03;;;3.03;;
67041;SDS011;53949;47.790;18.750;2023-07-02T08:45:39;3.75;;;3.12;;
67041;SDS011;53949;47.790;18.750;2023-07-02T08:48:44;4.70;;;2.87;;
67041;SDS011;53949;47.790;18.750;2023-07-02T08:51:47;4.20;;;3.30;;
67041;SDS011;53949;47.790;18.750;2023-07-02T08:54:50;4.70;;;3.07;;
67041;SDS011;53949;47.790;18.750;2023-07-02T08:57:55;4.10;;;2.90;;
67041;SDS011;53949;47.790;18.750;2023-07-02T09:04:14;3.70;;;2.92;;
67041;SDS011;53949;47.790;18.750;2023-07-02T09:07:18;2.95;;;2.53;;
67041;SDS011;53949;47.790;18.750;2023-07-02T09:10:29;3.85;;;2.78;;
67041;SDS011;53949;47.790;18.750;2023-07-02T09:13:49;3.35;;;3.00;;
67041;SDS011;53949;47.790;18.750;2023-07-02T09:17:02;2.83;;;2.62;;
67041;SDS011;53949;47.790;18.750;2023-07-02T09:20:09;4.35;;;2.80;;
67041;SDS011;53949;47.790;18.750;2023-07-02T09:23:13;4.55;;;3.10;;
67041;SDS011;53949;47.790;18.750;2023-07-02T09:26:20;5.72;;;2.83;;
67041;SDS011;53949;47.790;18.750;2023-07-02T09:32:31;8.07;;;3.10;;
67041;SDS011;53949;47.790;18.750;2023-07-02T09:35:35;4.12;;;2.87;;
67041;SDS011;53949;47.790;18.750;2023-07-02T09:38:39;3.67;;;2.78;;
67041;SDS011;53949;47.790;18.750;2023-07-02T09:41:42;3.15;;;2.78;;
67041;SDS011;53949;47.790;18.750;2023-07-02T09:44:47;4.68;;;2.92;;
67041;SDS011;53949;47.790;18.750;2023-07-02T09:47:53;5.18;;;2.62;;
67041;SDS011;53949;47.790;18.750;2023-07-02T09:51:08;4.20;;;3.03;;
67041;SDS011;53949;47.790;18.750;2023-07-02T09:54:11;3.45;;;3.15;;
67041;SDS011;53949;47.790;18.750;2023-07-02T09:57:16;5.25;;;3.75;;
67041;SDS011;53949;47.790;18.750;2023-07-02T10:00:19;3.70;;;3.05;;
67041;SDS011;53949;47.790;18.750;2023-07-02T10:03:29;3.73;;;2.77;;
67041;SDS011;53949;47.790;18.750;2023-07-02T10:06:43;7.22;;;3.25;;
67041;SDS011;53949;47.790;18.750;2023-07-02T10:09:51;5.72;;;2.40;;
67041;SDS011;53949;47.790;18.750;2023-07-02T10:16:02;4.25;;;2.80;;
67041;SDS011;53949;47.790;18.750;2023-07-02T10:19:09;3.08;;;2.40;;
67041;SDS011;53949;47.790;18.750;2023-07-02T10:22:14;5.12;;;2.40;;
67041;SDS011;53949;47.790;18.750;2023-07-02T10:28:40;3.33;;;2.85;;
67041;SDS011;53949;47.790;18.750;2023-07-02T10:31:48;3.42;;;2.28;;
67041;SDS011;53949;47.790;18.750;2023-07-02T10:34:51;4.82;;;2.53;;
67041;SDS011;53949;47.790;18.750;2023-07-02T10:37:54;3.80;;;2.65;;
67041;SDS011;53949;47.790;18.750;2023-07-02T10:40:59;2.62;;;2.40;;
67041;SDS011;53949;47.790;18.750;2023-07-02T10:44:09;7.40;;;3.03;;
67041;SDS011;53949;47.790;18.750;2023-07-02T10:47:12;6.00;;;2.45;;
67041;SDS011;53949;47.790;18.750;2023-07-02T10:50:16;3.30;;;2.30;;
67041;SDS011;53949;47.790;18.750;2023-07-02T10:53:20;2.80;;;2.40;;
67041;SDS011;53949;47.790;18.750;2023-07-02T10:56:24;2.65;;;2.42;;
67041;SDS011;53949;47.790;18.750;2023-07-02T10:59:30;3.10;;;2.37;;
67041;SDS011;53949;47.790;18.750;2023-07-02T11:02:37;4.03;;;2.37;;
67041;SDS011;53949;47.790;18.750;2023-07-02T11:05:40;2.92;;;2.45;;
67041;SDS011;53949;47.790;18.750;2023-07-02T11:08:43;2.85;;;2.30;;
67041;SDS011;53949;47.790;18.750;2023-07-02T11:11:54;2.85;;;2.35;;
67041;SDS011;53949;47.790;18.750;2023-07-02T11:15:13;3.35;;;2.78;;
67041;SDS011;53949;47.790;18.750;2023-07-02T11:18:17;4.65;;;2.42;;
67041;SDS011;53949;47.790;18.750;2023-07-02T11:21:23;2.90;;;2.37;;
67041;SDS011;53949;47.790;18.750;2023-07-02T11:24:33;3.03;;;2.58;;
67041;SDS011;53949;47.790;18.750;2023-07-02T11:27:39;4.05;;;2.78;;
67041;SDS011;53949;47.790;18.750;2023-07-02T11:30:47;3.20;;;2.67;;
67041;SDS011;53949;47.790;18.750;2023-07-02T11:33:51;2.30;;;2.10;;
67041;SDS011;53949;47.790;18.750;2023-07-02T11:39:58;2.35;;;2.15;;
67041;SDS011;53949;47.790;18.750;2023-07-02T11:43:02;2.30;;;2.10;;
67041;SDS011;53949;47.790;18.750;2023-07-02T11:46:05;2.27;;;2.03;;
67041;SDS011;53949;47.790;18.750;2023-07-02T11:49:08;4.53;;;1.90;;
67041;SDS011;53949;47.790;18.750;2023-07-02T11:52:11;2.10;;;2.00;;
67041;SDS011;53949;47.790;18.750;2023-07-02T11:55:16;2.53;;;2.20;;
67041;SDS011;53949;47.790;18.750;2023-07-02T11:58:19;4.37;;;2.22;;
67041;SDS011;53949;47.790;18.750;2023-07-02T12:01:23;1.50;;;1.40;;
67041;SDS011;53949;47.790;18.750;2023-07-02T12:04:26;2.33;;;1.60;;
67041;SDS011;53949;47.790;18.750;2023-07-02T12:07:29;1.30;;;1.20;;
67041;SDS011;53949;47.790;18.750;2023-07-02T12:10:32;1.00;;;0.95;;
67041;SDS011;53949;47.790;18.750;2023-07-02T12:13:39;2.33;;;1.27;;
67041;SDS011;53949;47.790;18.750;2023-07-02T12:16:42;1.23;;;0.93;;
67041;SDS011;53949;47.790;18.750;2023-07-02T12:19:45;1.58;;;1.10;;
67041;SDS011;53949;47.790;18.750;2023-07-02T12:22:49;0.73;;;0.73;;
67041;SDS011;53949;47.790;18.750;2023-07-02T12:25:52;1.00;;;1.00;;
67041;SDS011;53949;47.790;18.750;2023-07-02T12:28:55;0.80;;;0.80;;
67041;SDS011;53949;47.790;18.750;2023-07-02T12:31:58;1.50;;;0.70;;
67041;SDS011;53949;47.790;18.750;2023-07-02T12:35:02;0.67;;;0.67;;
67041;SDS011;53949;47.790;18.750;2023-07-02T12:38:05;1.47;;;0.80;;
67041;SDS011;53949;47.790;18.750;2023-07-02T12:41:11;1.45;;;1.10;;
67041;SDS011;53949;47.790;18.750;2023-07-02T12:44:13;0.80;;;0.70;;
67041;SDS011;53949;47.790;18.750;2023-07-02T12:47:17;0.63;;;0.63;;
67041;SDS011;53949;47.790;18.750;2023-07-02T12:50:20;0.90;;;0.90;;
67041;SDS011;53949;47.790;18.750;2023-07-02T12:53:27;0.90;;;0.90;;
67041;SDS011;53949;47.790;18.750;2023-07-02T12:56:30;0.80;;;0.80;;
67041;SDS011;53949;47.790;18.750;2023-07-02T12:59:33;1.00;;;0.90;;
67041;SDS011;53949;47.790;18.750;2023-07-02T13:02:37;2.13;;;0.90;;
67041;SDS011;53949;47.790;18.750;2023-07-02T13:06:01;0.90;;;0.90;;
67041;SDS011;53949;47.790;18.750;2023-07-02T13:09:04;1.00;;;0.90;;
67041;SDS011;53949;47.790;18.750;2023-07-02T13:12:09;0.98;;;0.90;;
67041;SDS011;53949;47.790;18.750;2023-07-02T13:15:14;1.42;;;1.00;;
67041;SDS011;53949;47.790;18.750;2023-07-02T13:18:18;1.33;;;1.23;;
67041;SDS011;53949;47.790;18.750;2023-07-02T13:21:22;1.77;;;1.00;;
67041;SDS011;53949;47.790;18.750;2023-07-02T13:27:31;2.87;;;1.10;;
67041;SDS011;53949;47.790;18.750;2023-07-02T13:30:35;1.62;;;0.85;;
67041;SDS011;53949;47.790;18.750;2023-07-02T13:33:39;1.73;;;1.02;;
67041;SDS011;53949;47.790;18.750;2023-07-02T13:36:44;0.93;;;0.93;;
67041;SDS011;53949;47.790;18.750;2023-07-02T13:39:47;2.87;;;1.10;;
67041;SDS011;53949;47.790;18.750;2023-07-02T13:42:51;1.35;;;1.25;;
67041;SDS011;53949;47.790;18.750;2023-07-02T13:45:54;1.07;;;0.90;;
67041;SDS011;53949;47.790;18.750;2023-07-02T13:49:00;1.08;;;1.05;;
67041;SDS011;53949;47.790;18.750;2023-07-02T13:52:06;1.10;;;1.00;;
67041;SDS011;53949;47.790;18.750;2023-07-02T13:55:10;2.03;;;1.15;;
67041;SDS011;53949;47.790;18.750;2023-07-02T13:58:15;0.93;;;0.93;;
67041;SDS011;53949;47.790;18.750;2023-07-02T14:01:32;3.80;;;1.10;;
67041;SDS011;53949;47.790;18.750;2023-07-02T14:04:36;3.42;;;1.00;;
67041;SDS011;53949;47.790;18.750;2023-07-02T14:07:40;2.47;;;1.10;;
67041;SDS011;53949;47.790;18.750;2023-07-02T14:10:45;2.10;;;1.15;;
67041;SDS011;53949;47.790;18.750;2023-07-02T14:13:49;1.00;;;1.00;;
67041;SDS011;53949;47.790;18.750;2023-07-02T14:16:53;1.10;;;1.10;;
67041;SDS011;53949;47.790;18.750;2023-07-02T14:23:00;0.83;;;0.83;;
67041;SDS011;53949;47.790;18.750;2023-07-02T14:26:05;1.25;;;1.15;;
67041;SDS011;53949;47.790;18.750;2023-07-02T14:29:09;1.65;;;1.05;;
67041;SDS011;53949;47.790;18.750;2023-07-02T14:32:13;3.75;;;1.10;;
67041;SDS011;53949;47.790;18.750;2023-07-02T14:35:17;1.23;;;1.08;;
67041;SDS011;53949;47.790;18.750;2023-07-02T14:38:22;1.00;;;1.00;;
67041;SDS011;53949;47.790;18.750;2023-07-02T14:41:26;0.80;;;0.80;;
67041;SDS011;53949;47.790;18.750;2023-07-02T14:44:30;0.68;;;0.68;;
67041;SDS011;53949;47.790;18.750;2023-07-02T14:47:36;0.88;;;0.88;;
67041;SDS011;53949;47.790;18.750;2023-07-02T14:50:58;0.90;;;0.90;;
67041;SDS011;53949;47.790;18.750;2023-07-02T14:54:03;1.58;;;0.90;;
67041;SDS011;53949;47.790;18.750;2023-07-02T14:57:08;1.10;;;1.00;;
67041;SDS011;53949;47.790;18.750;2023-07-02T15:00:12;1.08;;;1.02;;
67041;SDS011;53949;47.790;18.750;2023-07-02T15:06:20;1.20;;;0.90;;
67041;SDS011;53949;47.790;18.750;2023-07-02T15:09:23;1.00;;;1.00;;
67041;SDS011;53949;47.790;18.750;2023-07-02T15:12:28;1.45;;;0.80;;
67041;SDS011;53949;47.790;18.750;2023-07-02T15:15:31;1.23;;;0.90;;
67041;SDS011;53949;47.790;18.750;2023-07-02T15:18:34;0.93;;;0.93;;
67041;SDS011;53949;47.790;18.750;2023-07-02T15:24:41;1.35;;;1.23;;
67041;SDS011;53949;47.790;18.750;2023-07-02T15:27:44;3.30;;;1.10;;
67041;SDS011;53949;47.790;18.750;2023-07-02T15:30:51;1.15;;;1.00;;
67041;SDS011;53949;47.790;18.750;2023-07-02T15:33:55;1.25;;;1.12;;
67041;SDS011;53949;47.790;18.750;2023-07-02T15:36:59;2.45;;;1.33;;
67041;SDS011;53949;47.790;18.750;2023-07-02T15:40:02;4.40;;;1.10;;
67041;SDS011;53949;47.790;18.750;2023-07-02T15:43:05;0.90;;;0.90;;
67041;SDS011;53949;47.790;18.750;2023-07-02T15:46:09;1.37;;;1.27;;
67041;SDS011;53949;47.790;18.750;2023-07-02T15:49:13;1.62;;;1.52;;
67041;SDS011;53949;47.790;18.750;2023-07-02T15:52:17;1.50;;;1.40;;
67041;SDS011;53949;47.790;18.750;2023-07-02T15:55:20;1.67;;;1.20;;
67041;SDS011;53949;47.790;18.750;2023-07-02T15:58:25;1.20;;;1.20;;
67041;SDS011;53949;47.790;18.750;2023-07-02T16:01:30;1.50;;;1.40;;
67041;SDS011;53949;47.790;18.750;2023-07-02T16:04:37;2.47;;;1.50;;
67041;SDS011;53949;47.790;18.750;2023-07-02T16:07:42;1.20;;;1.10;;
67041;SDS011;53949;47.790;18.750;2023-07-02T16:10:46;1.58;;;0.90;;
67041;SDS011;53949;47.790;18.750;2023-07-02T16:13:51;1.85;;;1.27;;
67041;SDS011;53949;47.790;18.750;2023-07-02T16:16:54;1.23;;;1.10;;
67041;SDS011;53949;47.790;18.750;2023-07-02T16:19:58;1.05;;;1.05;;
67041;SDS011;53949;47.790;18.750;2023-07-02T16:26:19;0.98;;;0.98;;
67041;SDS011;53949;47.790;18.750;2023-07-02T16:32:29;1.67;;;0.90;;
67041;SDS011;53949;47.790;18.750;2023-07-02T16:35:34;0.90;;;0.90;;
67041;SDS011;53949;47.790;18.750;2023-07-02T16:38:39;2.37;;;1.00;;
67041;SDS011;53949;47.790;18.750;2023-07-02T16:41:43;1.10;;;1.00;;
67041;SDS011;53949;47.790;18.750;2023-07-02T16:44:50;1.20;;;1.10;;
67041;SDS011;53949;47.790;18.750;2023-07-02T16:47:54;1.15;;;1.05;;
67041;SDS011;53949;47.790;18.750;2023-07-02T16:50:59;1.95;;;1.12;;
67041;SDS011;53949;47.790;18.750;2023-07-02T16:54:03;2.58;;;1.30;;
67041;SDS011;53949;47.790;18.750;2023-07-02T16:57:07;0.95;;;0.95;;
67041;SDS011;53949;47.790;18.750;2023-07-02T17:00:11;2.65;;;1.30;;
67041;SDS011;53949;47.790;18.750;2023-07-02T17:03:15;3.47;;;1.10;;
67041;SDS011;53949;47.790;18.750;2023-07-02T17:06:20;1.55;;;1.20;;
67041;SDS011;53949;47.790;18.750;2023-07-02T17:09:27;2.55;;;1.40;;
67041;SDS011;53949;47.790;18.750;2023-07-02T17:12:41;2.22;;;1.40;;
67041;SDS011;53949;47.790;18.750;2023-07-02T17:15:46;1.35;;;1.25;;
67041;SDS011;53949;47.790;18.750;2023-07-02T17:18:52;3.83;;;1.40;;
67041;SDS011;53949;47.790;18.750;2023-07-02T17:21:56;4.10;;;1.23;;
67041;SDS011;53949;47.790;18.750;2023-07-02T17:25:01;1.75;;;1.10;;
67041;SDS011;53949;47.790;18.750;2023-07-02T17:28:07;1.15;;;1.10;;
67041;SDS011;53949;47.790;18.750;2023-07-02T17:31:11;1.17;;;1.10;;
67041;SDS011;53949;47.790;18.750;2023-07-02T17:34:15;1.52;;;1.20;;
67041;SDS011;53949;47.790;18.750;2023-07-02T17:37:22;1.08;;;0.98;;
67041;SDS011;53949;47.790;18.750;2023-07-02T17:46:34;1.27;;;1.17;;
67041;SDS011;53949;47.790;18.750;2023-07-02T17:49:39;1.52;;;1.33;;
67041;SDS011;53949;47.790;18.750;2023-07-02T17:52:43;1.10;;;1.10;;
67041;SDS011;53949;47.790;18.750;2023-07-02T17:55:48;1.77;;;0.98;;
67041;SDS011;53949;47.790;18.750;2023-07-02T17:58:53;3.50;;;1.20;;
67041;SDS011;53949;47.790;18.750;2023-07-02T18:01:58;1.50;;;1.10;;
67041;SDS011;53949;47.790;18.750;2023-07-02T18:05:02;0.98;;;0.98;;
67041;SDS011;53949;47.790;18.750;2023-07-02T18:08:07;1.90;;;1.10;;
67041;SDS011;53949;47.790;18.750;2023-07-02T18:11:11;1.50;;;1.05;;
67041;SDS011;53949;47.790;18.750;2023-07-02T18:14:15;1.50;;;1.17;;
67041;SDS011;53949;47.790;18.750;2023-07-02T18:17:18;0.98;;;0.98;;
67041;SDS011;53949;47.790;18.750;2023-07-02T18:20:22;2.13;;;1.33;;
67041;SDS011;53949;47.790;18.750;2023-07-02T18:23:26;1.15;;;1.05;;
67041;SDS011;53949;47.790;18.750;2023-07-02T18:26:31;1.10;;;1.00;;
67041;SDS011;53949;47.790;18.750;2023-07-02T18:29:36;1.08;;;1.00;;
67041;SDS011;53949;47.790;18.750;2023-07-02T18:32:41;1.25;;;1.10;;
67041;SDS011;53949;47.790;18.750;2023-07-02T18:35:46;2.58;;;1.23;;
67041;SDS011;53949;47.790;18.750;2023-07-02T18:41:54;1.02;;;0.93;;
67041;SDS011;53949;47.790;18.750;2023-07-02T18:44:59;1.42;;;1.02;;
67041;SDS011;53949;47.790;18.750;2023-07-02T18:48:05;1.62;;;1.08;;
67041;SDS011;53949;47.790;18.750;2023-07-02T18:51:10;0.90;;;0.90;;
67041;SDS011;53949;47.790;18.750;2023-07-02T18:54:14;1.77;;;1.15;;
67041;SDS011;53949;47.790;18.750;2023-07-02T18:57:18;1.10;;;1.10;;
67041;SDS011;53949;47.790;18.750;2023-07-02T19:03:26;1.42;;;1.08;;